sensor_id;sensor_type;location;lat;lon;timestamp;pressure;altitude;pressure_sealevel;temperature;humidity
55466;BME280;41329;41.594;23.810;2023-11-22T00:02:05;94759.03;;;10.11;67.08
55466;BME280;41329;41.594;23.810;2023-11-22T00:04:31;94770.81;;;10.08;67.16
55466;BME280;41329;41.594;23.810;2023-11-22T00:06:56;94769.16;;;10.04;67.14
55466;BME280;41329;41.594;23.810;2023-11-22T00:09:22;94772.38;;;10.06;67.26
55466;BME280;41329;41.594;23.810;2023-11-22T00:11:48;94758.91;;;10.01;67.42
55466;BME280;41329;41.594;23.810;2023-11-22T00:14:15;94755.72;;;9.99;67.03
55466;BME280;41329;41.594;23.810;2023-11-22T00:16:40;94757.72;;;10.02;67.38
55466;BME280;41329;41.594;23.810;2023-11-22T00:19:06;94738.72;;;9.97;67.83
55466;BME280;41329;41.594;23.810;2023-11-22T00:21:32;94735.53;;;9.95;67.61
55466;BME280;41329;41.594;23.810;2023-11-22T00:23:57;94746.59;;;9.95;67.18
55466;BME280;41329;41.594;23.810;2023-11-22T00:26:23;94745.75;;;9.87;67.08
55466;BME280;41329;41.594;23.810;2023-11-22T00:28:48;94767.09;;;9.90;67.53
55466;BME280;41329;41.594;23.810;2023-11-22T00:31:14;94740.09;;;9.73;67.15
55466;BME280;41329;41.594;23.810;2023-11-22T00:33:40;94758.34;;;9.85;67.12
55466;BME280;41329;41.594;23.810;2023-11-22T00:36:06;94755.13;;;9.79;67.24
55466;BME280;41329;41.594;23.810;2023-11-22T00:38:33;94741.25;;;9.72;67.44
55466;BME280;41329;41.594;23.810;2023-11-22T00:41:01;94742.81;;;9.70;67.67
55466;BME280;41329;41.594;23.810;2023-11-22T00:43:27;94740.81;;;9.67;67.83
55466;BME280;41329;41.594;23.810;2023-11-22T00:45:52;94730.56;;;9.67;68.43
55466;BME280;41329;41.594;23.810;2023-11-22T00:48:18;94723.44;;;9.66;68.66
55466;BME280;41329;41.594;23.810;2023-11-22T00:50:43;94708.81;;;9.62;68.81
55466;BME280;41329;41.594;23.810;2023-11-22T00:53:09;94715.53;;;9.65;68.80
55466;BME280;41329;41.594;23.810;2023-11-22T00:55:35;94716.78;;;9.71;69.36
55466;BME280;41329;41.594;23.810;2023-11-22T00:58:00;94700.53;;;9.62;69.79
55466;BME280;41329;41.594;23.810;2023-11-22T01:00:30;94721.44;;;9.63;68.99
55466;BME280;41329;41.594;23.810;2023-11-22T01:02:55;94721.22;;;9.42;69.65
55466;BME280;41329;41.594;23.810;2023-11-22T01:05:20;94734.75;;;9.51;69.88
55466;BME280;41329;41.594;23.810;2023-11-22T01:07:48;94721.28;;;9.46;70.25
55466;BME280;41329;41.594;23.810;2023-11-22T01:10:13;94736.75;;;9.54;70.43
55466;BME280;41329;41.594;23.810;2023-11-22T01:12:39;94728.28;;;9.36;69.30
55466;BME280;41329;41.594;23.810;2023-11-22T01:15:05;94719.53;;;9.31;68.57
55466;BME280;41329;41.594;23.810;2023-11-22T01:17:31;94710.31;;;9.16;68.68
55466;BME280;41329;41.594;23.810;2023-11-22T01:19:56;94720.63;;;9.23;68.62
55466;BME280;41329;41.594;23.810;2023-11-22T01:22:23;94715.47;;;9.21;68.43
55466;BME280;41329;41.594;23.810;2023-11-22T01:24:49;94708.03;;;9.25;68.55
55466;BME280;41329;41.594;23.810;2023-11-22T01:27:14;94706.06;;;9.26;68.50
55466;BME280;41329;41.594;23.810;2023-11-22T01:29:40;94689.06;;;9.20;68.76
55466;BME280;41329;41.594;23.810;2023-11-22T01:32:07;94698.16;;;9.21;69.20
55466;BME280;41329;41.594;23.810;2023-11-22T01:34:36;94696.16;;;9.21;69.87
55466;BME280;41329;41.594;23.810;2023-11-22T01:37:02;94680.41;;;9.22;70.12
55466;BME280;41329;41.594;23.810;2023-11-22T01:39:28;94675.63;;;9.19;70.93
55466;BME280;41329;41.594;23.810;2023-11-22T01:41:54;94704.16;;;9.30;71.11
55466;BME280;41329;41.594;23.810;2023-11-22T01:44:20;94689.19;;;9.34;70.99
55466;BME280;41329;41.594;23.810;2023-11-22T01:46:45;94687.66;;;9.37;70.66
55466;BME280;41329;41.594;23.810;2023-11-22T01:49:11;94646.34;;;9.07;70.19
55466;BME280;41329;41.594;23.810;2023-11-22T01:51:37;94687.59;;;9.30;70.30
55466;BME280;41329;41.594;23.810;2023-11-22T01:54:04;94704.97;;;9.34;70.11
55466;BME280;41329;41.594;23.810;2023-11-22T01:56:31;94702.63;;;9.36;70.37
55466;BME280;41329;41.594;23.810;2023-11-22T01:58:57;94675.69;;;9.22;70.41
55466;BME280;41329;41.594;23.810;2023-11-22T02:01:26;94698.28;;;9.35;70.89
55466;BME280;41329;41.594;23.810;2023-11-22T02:03:51;94661.72;;;9.08;70.73
55466;BME280;41329;41.594;23.810;2023-11-22T02:06:19;94675.34;;;8.91;70.62
55466;BME280;41329;41.594;23.810;2023-11-22T02:08:46;94715.44;;;9.18;71.09
55466;BME280;41329;41.594;23.810;2023-11-22T02:11:12;94720.25;;;9.24;71.48
55466;BME280;41329;41.594;23.810;2023-11-22T02:13:37;94702.47;;;9.18;71.66
55466;BME280;41329;41.594;23.810;2023-11-22T02:16:03;94702.94;;;9.27;71.61
55466;BME280;41329;41.594;23.810;2023-11-22T02:18:29;94701.00;;;9.31;71.83
55466;BME280;41329;41.594;23.810;2023-11-22T02:20:55;94717.88;;;9.23;71.97
55466;BME280;41329;41.594;23.810;2023-11-22T02:23:21;94732.53;;;9.30;71.64
55466;BME280;41329;41.594;23.810;2023-11-22T02:25:47;94706.44;;;9.24;71.56
55466;BME280;41329;41.594;23.810;2023-11-22T02:28:12;94717.59;;;9.35;71.21
55466;BME280;41329;41.594;23.810;2023-11-22T02:30:38;94698.19;;;9.28;71.03
55466;BME280;41329;41.594;23.810;2023-11-22T02:33:04;94706.94;;;9.33;71.18
55466;BME280;41329;41.594;23.810;2023-11-22T02:35:30;94678.03;;;9.24;71.06
55466;BME280;41329;41.594;23.810;2023-11-22T02:37:57;94676.09;;;9.24;71.40
55466;BME280;41329;41.594;23.810;2023-11-22T02:40:23;94673.34;;;9.28;71.22
55466;BME280;41329;41.594;23.810;2023-11-22T02:42:50;94676.13;;;9.28;71.57
55466;BME280;41329;41.594;23.810;2023-11-22T02:45:34;94676.91;;;9.25;71.90
55466;BME280;41329;41.594;23.810;2023-11-22T02:48:00;94682.34;;;9.18;72.14
55466;BME280;41329;41.594;23.810;2023-11-22T02:50:29;94699.25;;;9.16;72.60
55466;BME280;41329;41.594;23.810;2023-11-22T02:52:57;94694.34;;;8.99;72.17
55466;BME280;41329;41.594;23.810;2023-11-22T02:55:23;94731.78;;;9.00;71.96
55466;BME280;41329;41.594;23.810;2023-11-22T02:57:50;94715.91;;;8.90;71.96
55466;BME280;41329;41.594;23.810;2023-11-22T03:00:16;94709.81;;;8.74;71.84
55466;BME280;41329;41.594;23.810;2023-11-22T03:02:44;94745.03;;;8.58;72.19
55466;BME280;41329;41.594;23.810;2023-11-22T03:05:10;94746.38;;;8.42;72.80
55466;BME280;41329;41.594;23.810;2023-11-22T03:07:37;94729.41;;;8.40;73.05
55466;BME280;41329;41.594;23.810;2023-11-22T03:10:03;94731.94;;;8.52;73.17
55466;BME280;41329;41.594;23.810;2023-11-22T03:12:28;94737.91;;;8.54;73.43
55466;BME280;41329;41.594;23.810;2023-11-22T03:14:54;94723.69;;;8.52;73.50
55466;BME280;41329;41.594;23.810;2023-11-22T03:17:26;94716.25;;;8.56;74.08
55466;BME280;41329;41.594;23.810;2023-11-22T03:19:53;94718.38;;;8.66;74.63
55466;BME280;41329;41.594;23.810;2023-11-22T03:22:19;94713.69;;;8.70;74.68
55466;BME280;41329;41.594;23.810;2023-11-22T03:24:44;94705.50;;;8.77;74.83
55466;BME280;41329;41.594;23.810;2023-11-22T03:27:10;94675.50;;;8.72;74.91
55466;BME280;41329;41.594;23.810;2023-11-22T03:29:37;94674.41;;;8.80;74.88
55466;BME280;41329;41.594;23.810;2023-11-22T03:32:03;94674.44;;;8.83;74.68
55466;BME280;41329;41.594;23.810;2023-11-22T03:34:29;94688.31;;;8.87;74.81
55466;BME280;41329;41.594;23.810;2023-11-22T03:36:54;94715.56;;;8.95;74.81
55466;BME280;41329;41.594;23.810;2023-11-22T03:39:20;94696.56;;;8.87;74.80
55466;BME280;41329;41.594;23.810;2023-11-22T03:41:45;94710.63;;;9.08;74.60
55466;BME280;41329;41.594;23.810;2023-11-22T03:44:10;94696.03;;;9.11;74.72
55466;BME280;41329;41.594;23.810;2023-11-22T03:46:37;94715.41;;;9.14;74.63
55466;BME280;41329;41.594;23.810;2023-11-22T03:49:06;94709.00;;;9.07;74.63
55466;BME280;41329;41.594;23.810;2023-11-22T03:51:38;94726.53;;;9.21;74.67
55466;BME280;41329;41.594;23.810;2023-11-22T03:54:05;94706.78;;;9.16;74.77
55466;BME280;41329;41.594;23.810;2023-11-22T03:56:31;94737.28;;;9.30;75.06
55466;BME280;41329;41.594;23.810;2023-11-22T03:58:56;94737.38;;;9.37;74.88
55466;BME280;41329;41.594;23.810;2023-11-22T04:01:22;94703.44;;;9.00;74.74
55466;BME280;41329;41.594;23.810;2023-11-22T04:03:47;94760.00;;;9.20;74.37
55466;BME280;41329;41.594;23.810;2023-11-22T04:06:17;94738.66;;;9.13;74.04
55466;BME280;41329;41.594;23.810;2023-11-22T04:08:44;94758.44;;;9.19;74.24
55466;BME280;41329;41.594;23.810;2023-11-22T04:11:10;94744.63;;;9.19;74.26
55466;BME280;41329;41.594;23.810;2023-11-22T04:13:36;94749.78;;;9.20;74.46
55466;BME280;41329;41.594;23.810;2023-11-22T04:16:01;94732.34;;;9.13;74.80
55466;BME280;41329;41.594;23.810;2023-11-22T04:18:27;94739.56;;;9.24;74.95
55466;BME280;41329;41.594;23.810;2023-11-22T04:20:52;94737.63;;;9.25;74.77
55466;BME280;41329;41.594;23.810;2023-11-22T04:23:18;94725.75;;;9.21;74.89
55466;BME280;41329;41.594;23.810;2023-11-22T04:25:43;94711.84;;;9.14;75.18
55466;BME280;41329;41.594;23.810;2023-11-22T04:28:09;94746.78;;;9.36;75.41
55466;BME280;41329;41.594;23.810;2023-11-22T04:30:35;94741.97;;;9.26;75.22
55466;BME280;41329;41.594;23.810;2023-11-22T04:33:00;94742.06;;;9.33;75.17
55466;BME280;41329;41.594;23.810;2023-11-22T04:35:27;94752.81;;;9.45;75.04
55466;BME280;41329;41.594;23.810;2023-11-22T04:37:52;94751.59;;;9.42;75.18
55466;BME280;41329;41.594;23.810;2023-11-22T04:40:18;94723.84;;;9.28;74.92
55466;BME280;41329;41.594;23.810;2023-11-22T04:42:43;94750.47;;;9.47;74.69
55466;BME280;41329;41.594;23.810;2023-11-22T04:45:09;94752.88;;;9.52;74.81
55466;BME280;41329;41.594;23.810;2023-11-22T04:47:35;94744.63;;;9.55;74.93
55466;BME280;41329;41.594;23.810;2023-11-22T04:50:01;94744.25;;;9.57;74.71
55466;BME280;41329;41.594;23.810;2023-11-22T04:52:26;94745.88;;;9.61;74.84
55466;BME280;41329;41.594;23.810;2023-11-22T04:54:52;94728.47;;;9.54;74.75
55466;BME280;41329;41.594;23.810;2023-11-22T04:57:17;94740.00;;;9.63;74.36
55466;BME280;41329;41.594;23.810;2023-11-22T04:59:42;94722.88;;;9.47;74.17
55466;BME280;41329;41.594;23.810;2023-11-22T05:02:08;94751.88;;;9.67;74.05
55466;BME280;41329;41.594;23.810;2023-11-22T05:04:33;94758.53;;;9.66;74.14
55466;BME280;41329;41.594;23.810;2023-11-22T05:06:59;94754.63;;;9.67;73.90
55466;BME280;41329;41.594;23.810;2023-11-22T05:09:24;94738.34;;;9.55;73.70
55466;BME280;41329;41.594;23.810;2023-11-22T05:11:50;94748.22;;;9.59;73.64
55466;BME280;41329;41.594;23.810;2023-11-22T05:14:17;94751.81;;;9.63;73.89
55466;BME280;41329;41.594;23.810;2023-11-22T05:16:43;94765.25;;;9.65;73.98
55466;BME280;41329;41.594;23.810;2023-11-22T05:19:08;94761.25;;;9.59;73.67
55466;BME280;41329;41.594;23.810;2023-11-22T05:21:33;94769.91;;;9.21;74.44
55466;BME280;41329;41.594;23.810;2023-11-22T05:23:59;94780.63;;;8.96;75.65
55466;BME280;41329;41.594;23.810;2023-11-22T05:26:25;94772.31;;;8.93;75.57
55466;BME280;41329;41.594;23.810;2023-11-22T05:28:50;94772.06;;;9.05;75.76
55466;BME280;41329;41.594;23.810;2023-11-22T05:31:19;94782.91;;;9.20;76.06
55466;BME280;41329;41.594;23.810;2023-11-22T05:33:45;94771.75;;;9.13;76.49
55466;BME280;41329;41.594;23.810;2023-11-22T05:36:10;94786.50;;;9.24;76.90
55466;BME280;41329;41.594;23.810;2023-11-22T05:38:36;94786.88;;;9.23;77.08
55466;BME280;41329;41.594;23.810;2023-11-22T05:41:03;94801.97;;;9.32;76.95
55466;BME280;41329;41.594;23.810;2023-11-22T05:43:29;94806.78;;;9.39;76.68
55466;BME280;41329;41.594;23.810;2023-11-22T05:45:54;94805.19;;;9.38;76.16
55466;BME280;41329;41.594;23.810;2023-11-22T05:48:20;94795.63;;;9.28;75.63
55466;BME280;41329;41.594;23.810;2023-11-22T05:50:46;94808.75;;;9.38;75.91
55466;BME280;41329;41.594;23.810;2023-11-22T05:53:12;94815.44;;;9.37;75.78
55466;BME280;41329;41.594;23.810;2023-11-22T05:55:38;94804.56;;;9.18;76.10
55466;BME280;41329;41.594;23.810;2023-11-22T05:58:04;94827.41;;;9.15;76.32
55466;BME280;41329;41.594;23.810;2023-11-22T06:00:29;94836.88;;;9.18;76.43
55466;BME280;41329;41.594;23.810;2023-11-22T06:02:55;94827.88;;;9.21;76.25
55466;BME280;41329;41.594;23.810;2023-11-22T06:05:24;94823.94;;;9.22;76.62
55466;BME280;41329;41.594;23.810;2023-11-22T06:07:50;94835.09;;;9.32;76.57
55466;BME280;41329;41.594;23.810;2023-11-22T06:10:16;94840.75;;;9.13;76.62
55466;BME280;41329;41.594;23.810;2023-11-22T06:12:42;94840.91;;;8.94;78.15
55466;BME280;41329;41.594;23.810;2023-11-22T06:15:09;94838.28;;;9.05;78.36
55466;BME280;41329;41.594;23.810;2023-11-22T06:17:34;94837.28;;;9.20;78.26
55466;BME280;41329;41.594;23.810;2023-11-22T06:20:00;94839.78;;;9.28;78.41
55466;BME280;41329;41.594;23.810;2023-11-22T06:22:25;94839.75;;;9.25;78.68
55466;BME280;41329;41.594;23.810;2023-11-22T06:24:51;94844.56;;;9.31;78.71
55466;BME280;41329;41.594;23.810;2023-11-22T06:27:16;94836.78;;;9.11;79.16
55466;BME280;41329;41.594;23.810;2023-11-22T06:29:42;94861.41;;;9.23;78.91
55466;BME280;41329;41.594;23.810;2023-11-22T06:32:10;94835.75;;;8.93;78.36
55466;BME280;41329;41.594;23.810;2023-11-22T06:34:36;94852.34;;;8.96;78.12
55466;BME280;41329;41.594;23.810;2023-11-22T06:37:02;94861.66;;;8.85;78.33
55466;BME280;41329;41.594;23.810;2023-11-22T06:39:28;94887.06;;;8.97;78.19
55466;BME280;41329;41.594;23.810;2023-11-22T06:41:53;94884.34;;;9.01;77.64
55466;BME280;41329;41.594;23.810;2023-11-22T06:44:19;94878.41;;;8.99;77.74
55466;BME280;41329;41.594;23.810;2023-11-22T06:46:44;94885.91;;;8.98;77.96
55466;BME280;41329;41.594;23.810;2023-11-22T06:49:09;94878.41;;;8.99;78.08
55466;BME280;41329;41.594;23.810;2023-11-22T06:51:35;94885.31;;;9.12;77.67
55466;BME280;41329;41.594;23.810;2023-11-22T06:54:00;94890.91;;;9.19;77.66
55466;BME280;41329;41.594;23.810;2023-11-22T06:56:26;94877.44;;;9.14;78.26
55466;BME280;41329;41.594;23.810;2023-11-22T06:58:51;94889.84;;;9.27;78.72
55466;BME280;41329;41.594;23.810;2023-11-22T07:01:17;94887.91;;;9.31;78.55
55466;BME280;41329;41.594;23.810;2023-11-22T07:03:42;94888.44;;;9.40;78.77
55466;BME280;41329;41.594;23.810;2023-11-22T07:06:08;94884.56;;;9.44;78.50
55466;BME280;41329;41.594;23.810;2023-11-22T07:08:33;94883.03;;;9.50;78.83
55466;BME280;41329;41.594;23.810;2023-11-22T07:10:59;94888.66;;;9.57;78.51
55466;BME280;41329;41.594;23.810;2023-11-22T07:13:25;94866.53;;;9.54;78.51
55466;BME280;41329;41.594;23.810;2023-11-22T07:15:52;94869.72;;;9.56;78.77
55466;BME280;41329;41.594;23.810;2023-11-22T07:18:19;94882.53;;;9.71;78.51
55466;BME280;41329;41.594;23.810;2023-11-22T07:20:44;94872.25;;;9.71;78.27
55466;BME280;41329;41.594;23.810;2023-11-22T07:23:10;94863.97;;;9.71;77.98
55466;BME280;41329;41.594;23.810;2023-11-22T07:25:39;94879.09;;;9.81;77.90
55466;BME280;41329;41.594;23.810;2023-11-22T07:28:05;94881.88;;;9.84;78.20
55466;BME280;41329;41.594;23.810;2023-11-22T07:30:30;94883.50;;;9.89;78.04
55466;BME280;41329;41.594;23.810;2023-11-22T07:32:58;94825.91;;;9.54;77.79
55466;BME280;41329;41.594;23.810;2023-11-22T07:35:24;94883.91;;;9.91;77.56
55466;BME280;41329;41.594;23.810;2023-11-22T07:37:51;94866.38;;;9.76;77.43
55466;BME280;41329;41.594;23.810;2023-11-22T07:40:17;94881.56;;;9.89;77.33
55466;BME280;41329;41.594;23.810;2023-11-22T07:42:44;94890.28;;;9.95;77.35
55466;BME280;41329;41.594;23.810;2023-11-22T07:45:10;94888.31;;;9.95;77.03
55466;BME280;41329;41.594;23.810;2023-11-22T07:47:37;94856.59;;;9.82;76.95
55466;BME280;41329;41.594;23.810;2023-11-22T07:50:09;94881.63;;;9.96;77.31
55466;BME280;41329;41.594;23.810;2023-11-22T07:52:36;94875.56;;;9.84;77.20
55466;BME280;41329;41.594;23.810;2023-11-22T07:55:04;94896.75;;;10.06;77.29
55466;BME280;41329;41.594;23.810;2023-11-22T07:57:36;94896.75;;;10.06;77.32
55466;BME280;41329;41.594;23.810;2023-11-22T08:00:02;94892.66;;;9.93;77.61
55466;BME280;41329;41.594;23.810;2023-11-22T08:02:35;94895.94;;;10.05;77.75
55466;BME280;41329;41.594;23.810;2023-11-22T08:05:04;94881.69;;;10.03;77.67
55466;BME280;41329;41.594;23.810;2023-11-22T08:07:32;94892.09;;;10.13;77.77
55466;BME280;41329;41.594;23.810;2023-11-22T08:09:58;94890.13;;;10.14;77.75
55466;BME280;41329;41.594;23.810;2023-11-22T08:12:23;94880.59;;;10.08;77.56
55466;BME280;41329;41.594;23.810;2023-11-22T08:14:49;94895.63;;;10.10;78.14
55466;BME280;41329;41.594;23.810;2023-11-22T08:17:14;94889.69;;;10.08;78.05
55466;BME280;41329;41.594;23.810;2023-11-22T08:19:40;94892.09;;;10.13;78.02
55466;BME280;41329;41.594;23.810;2023-11-22T08:22:06;94892.97;;;10.21;78.38
55466;BME280;41329;41.594;23.810;2023-11-22T08:24:32;94884.28;;;10.22;78.55
55466;BME280;41329;41.594;23.810;2023-11-22T08:26:57;94884.59;;;10.14;78.51
55466;BME280;41329;41.594;23.810;2023-11-22T08:29:24;94896.97;;;10.23;78.83
55466;BME280;41329;41.594;23.810;2023-11-22T08:31:49;94896.44;;;10.14;78.82
55466;BME280;41329;41.594;23.810;2023-11-22T08:34:16;94901.28;;;10.21;79.30
55466;BME280;41329;41.594;23.810;2023-11-22T08:36:42;94902.47;;;10.23;79.14
55466;BME280;41329;41.594;23.810;2023-11-22T08:39:08;94900.19;;;10.32;79.44
55466;BME280;41329;41.594;23.810;2023-11-22T08:41:33;94897.91;;;10.41;80.09
55466;BME280;41329;41.594;23.810;2023-11-22T08:43:59;94902.31;;;10.46;79.99
55466;BME280;41329;41.594;23.810;2023-11-22T08:46:25;94901.16;;;10.50;79.67
55466;BME280;41329;41.594;23.810;2023-11-22T08:48:51;94904.28;;;10.49;79.87
55466;BME280;41329;41.594;23.810;2023-11-22T08:51:17;94886.75;;;10.31;79.84
55466;BME280;41329;41.594;23.810;2023-11-22T08:53:43;94898.75;;;10.49;79.70
55466;BME280;41329;41.594;23.810;2023-11-22T08:56:11;94897.53;;;10.43;79.70
55466;BME280;41329;41.594;23.810;2023-11-22T08:58:40;94900.31;;;10.46;79.97
55466;BME280;41329;41.594;23.810;2023-11-22T09:01:06;94897.94;;;10.45;80.09
55466;BME280;41329;41.594;23.810;2023-11-22T09:03:33;94903.84;;;10.43;80.68
55466;BME280;41329;41.594;23.810;2023-11-22T09:05:59;94917.75;;;10.50;80.23
55466;BME280;41329;41.594;23.810;2023-11-22T09:08:25;94907.44;;;10.47;80.05
55466;BME280;41329;41.594;23.810;2023-11-22T09:10:51;94899.56;;;10.46;79.93
55466;BME280;41329;41.594;23.810;2023-11-22T09:13:16;94893.69;;;10.58;79.62
55466;BME280;41329;41.594;23.810;2023-11-22T09:15:45;94850.81;;;10.34;79.92
55466;BME280;41329;41.594;23.810;2023-11-22T09:18:11;94878.72;;;10.59;80.06
55466;BME280;41329;41.594;23.810;2023-11-22T09:20:38;94893.75;;;10.61;80.16
55466;BME280;41329;41.594;23.810;2023-11-22T09:23:03;94897.69;;;10.60;80.22
55466;BME280;41329;41.594;23.810;2023-11-22T09:25:30;94906.88;;;10.71;80.15
55466;BME280;41329;41.594;23.810;2023-11-22T09:27:57;94910.84;;;10.74;80.04
55466;BME280;41329;41.594;23.810;2023-11-22T09:30:30;94895.31;;;10.59;80.09
55466;BME280;41329;41.594;23.810;2023-11-22T09:33:12;94884.66;;;10.61;79.87
55466;BME280;41329;41.594;23.810;2023-11-22T09:35:39;94881.50;;;10.62;79.95
55466;BME280;41329;41.594;23.810;2023-11-22T09:38:07;94900.59;;;10.78;79.84
55466;BME280;41329;41.594;23.810;2023-11-22T09:40:45;94889.88;;;10.69;80.11
55466;BME280;41329;41.594;23.810;2023-11-22T09:43:12;94894.66;;;10.76;80.49
55466;BME280;41329;41.594;23.810;2023-11-22T09:45:48;94896.69;;;10.82;80.71
55466;BME280;41329;41.594;23.810;2023-11-22T09:48:16;94897.56;;;10.93;80.99
55466;BME280;41329;41.594;23.810;2023-11-22T09:51:02;94890.53;;;11.06;81.00
55466;BME280;41329;41.594;23.810;2023-11-22T09:53:33;94892.16;;;11.14;81.02
55466;BME280;41329;41.594;23.810;2023-11-22T09:56:01;94884.72;;;11.22;80.78
55466;BME280;41329;41.594;23.810;2023-11-22T09:58:30;94880.41;;;11.31;80.82
55466;BME280;41329;41.594;23.810;2023-11-22T10:00:57;94865.34;;;11.29;80.73
55466;BME280;41329;41.594;23.810;2023-11-22T10:03:23;94878.47;;;11.39;80.69
55466;BME280;41329;41.594;23.810;2023-11-22T10:05:49;94858.28;;;11.42;80.54
55466;BME280;41329;41.594;23.810;2023-11-22T10:08:17;94867.84;;;11.48;80.33
55466;BME280;41329;41.594;23.810;2023-11-22T10:10:44;94860.31;;;11.45;80.56
55466;BME280;41329;41.594;23.810;2023-11-22T10:13:13;94838.41;;;11.22;80.50
55466;BME280;41329;41.594;23.810;2023-11-22T10:15:38;94886.94;;;11.60;80.15
55466;BME280;41329;41.594;23.810;2023-11-22T10:18:04;94863.84;;;11.42;80.06
55466;BME280;41329;41.594;23.810;2023-11-22T10:20:42;94877.78;;;11.56;79.65
55466;BME280;41329;41.594;23.810;2023-11-22T10:23:15;94868.28;;;11.53;79.94
55466;BME280;41329;41.594;23.810;2023-11-22T10:25:47;94863.50;;;11.54;80.14
55466;BME280;41329;41.594;23.810;2023-11-22T10:28:15;94875.09;;;11.70;79.79
55466;BME280;41329;41.594;23.810;2023-11-22T10:30:43;94866.69;;;11.56;79.61
55466;BME280;41329;41.594;23.810;2023-11-22T10:33:12;94871.00;;;11.46;79.58
55466;BME280;41329;41.594;23.810;2023-11-22T10:35:44;94870.66;;;11.58;79.58
55466;BME280;41329;41.594;23.810;2023-11-22T10:38:10;94861.91;;;11.53;79.73
55466;BME280;41329;41.594;23.810;2023-11-22T10:40:37;94868.31;;;11.60;79.69
55466;BME280;41329;41.594;23.810;2023-11-22T10:43:03;94875.41;;;11.54;80.09
55466;BME280;41329;41.594;23.810;2023-11-22T10:45:30;94873.91;;;11.64;80.22
55466;BME280;41329;41.594;23.810;2023-11-22T10:48:00;94881.00;;;11.65;80.17
55466;BME280;41329;41.594;23.810;2023-11-22T10:50:26;94861.16;;;11.59;79.76
55466;BME280;41329;41.594;23.810;2023-11-22T10:52:52;94867.16;;;11.65;80.24
55466;BME280;41329;41.594;23.810;2023-11-22T10:55:21;94873.09;;;11.67;80.31
55466;BME280;41329;41.594;23.810;2023-11-22T10:57:51;94862.84;;;11.74;80.12
55466;BME280;41329;41.594;23.810;2023-11-22T11:00:19;94873.94;;;11.81;80.40
55466;BME280;41329;41.594;23.810;2023-11-22T11:02:52;94873.94;;;11.81;80.52
55466;BME280;41329;41.594;23.810;2023-11-22T11:05:25;94869.59;;;11.77;80.65
55466;BME280;41329;41.594;23.810;2023-11-22T11:08:11;94874.72;;;11.75;80.38
55466;BME280;41329;41.594;23.810;2023-11-22T11:10:42;94848.97;;;11.67;80.25
55466;BME280;41329;41.594;23.810;2023-11-22T11:13:09;94876.34;;;11.86;80.48
55466;BME280;41329;41.594;23.810;2023-11-22T11:15:35;94865.25;;;11.79;80.39
55466;BME280;41329;41.594;23.810;2023-11-22T11:18:01;94869.25;;;11.89;80.30
55466;BME280;41329;41.594;23.810;2023-11-22T11:20:32;94860.91;;;11.89;80.42
55466;BME280;41329;41.594;23.810;2023-11-22T11:22:58;94860.50;;;11.87;80.61
55466;BME280;41329;41.594;23.810;2023-11-22T11:25:26;94850.22;;;11.91;80.78
55466;BME280;41329;41.594;23.810;2023-11-22T11:27:57;94841.91;;;11.87;80.95
55466;BME280;41329;41.594;23.810;2023-11-22T11:30:48;94851.84;;;12.02;81.13
55466;BME280;41329;41.594;23.810;2023-11-22T11:33:20;94831.22;;;12.00;81.10
55466;BME280;41329;41.594;23.810;2023-11-22T11:35:51;94822.91;;;11.93;80.83
55466;BME280;41329;41.594;23.810;2023-11-22T11:38:20;94842.75;;;12.05;80.87
55466;BME280;41329;41.594;23.810;2023-11-22T11:40:47;94845.47;;;11.98;80.71
55466;BME280;41329;41.594;23.810;2023-11-22T11:43:13;94856.56;;;11.98;80.65
55466;BME280;41329;41.594;23.810;2023-11-22T11:45:41;94835.16;;;11.92;80.62
55466;BME280;41329;41.594;23.810;2023-11-22T11:48:13;94840.72;;;11.85;80.93
55466;BME280;41329;41.594;23.810;2023-11-22T11:50:39;94845.03;;;11.79;81.20
55466;BME280;41329;41.594;23.810;2023-11-22T11:53:04;94845.03;;;11.79;81.49
55466;BME280;41329;41.594;23.810;2023-11-22T11:55:30;94827.22;;;11.76;81.69
55466;BME280;41329;41.594;23.810;2023-11-22T11:57:56;94841.94;;;12.05;81.81
55466;BME280;41329;41.594;23.810;2023-11-22T12:00:22;94840.78;;;12.09;81.98
55466;BME280;41329;41.594;23.810;2023-11-22T12:02:50;94841.97;;;12.19;81.79
55466;BME280;41329;41.594;23.810;2023-11-22T12:05:18;94835.25;;;12.20;81.66
55466;BME280;41329;41.594;23.810;2023-11-22T12:07:45;94865.38;;;12.46;82.50
55466;BME280;41329;41.594;23.810;2023-11-22T12:10:11;94853.09;;;12.57;81.80
55466;BME280;41329;41.594;23.810;2023-11-22T12:12:37;94855.50;;;12.66;80.82
55466;BME280;41329;41.594;23.810;2023-11-22T12:15:04;94854.31;;;12.81;81.08
55466;BME280;41329;41.594;23.810;2023-11-22T12:17:31;94840.44;;;12.99;81.59
55466;BME280;41329;41.594;23.810;2023-11-22T12:20:14;94852.31;;;13.20;81.22
55466;BME280;41329;41.594;23.810;2023-11-22T12:22:41;94838.03;;;13.15;80.11
55466;BME280;41329;41.594;23.810;2023-11-22T12:25:07;94807.13;;;12.92;78.78
55466;BME280;41329;41.594;23.810;2023-11-22T12:27:33;94844.34;;;13.29;78.68
55466;BME280;41329;41.594;23.810;2023-11-22T12:29:58;94857.03;;;13.37;78.11
55466;BME280;41329;41.594;23.810;2023-11-22T12:32:25;94847.91;;;13.33;77.68
55466;BME280;41329;41.594;23.810;2023-11-22T12:34:51;94841.16;;;13.27;77.31
55466;BME280;41329;41.594;23.810;2023-11-22T12:37:20;94859.84;;;12.95;78.22
55466;BME280;41329;41.594;23.810;2023-11-22T12:39:47;94854.31;;;12.95;78.41
55466;BME280;41329;41.594;23.810;2023-11-22T12:42:13;94864.63;;;13.09;77.73
55466;BME280;41329;41.594;23.810;2023-11-22T12:44:51;94869.38;;;13.01;77.39
55466;BME280;41329;41.594;23.810;2023-11-22T12:47:33;94878.09;;;12.89;77.96
55466;BME280;41329;41.594;23.810;2023-11-22T12:50:03;94868.97;;;12.71;78.56
55466;BME280;41329;41.594;23.810;2023-11-22T12:52:32;94860.66;;;12.71;79.23
55466;BME280;41329;41.594;23.810;2023-11-22T12:54:58;94866.59;;;12.80;79.48